createdAt,value
2019-02-03T00:00:27.134Z,57.87
2019-02-03T00:02:57.676Z,54.23
2019-02-03T00:05:28.140Z,50.40
2019-02-03T00:07:58.943Z,50.60
2019-02-03T00:10:29.877Z,57.30
2019-02-03T00:13:00.856Z,48.80
2019-02-03T00:15:32.004Z,53.90
2019-02-03T00:18:02.657Z,48.80
2019-02-03T00:20:33.266Z,54.17
2019-02-03T00:23:04.485Z,53.53
2019-02-03T00:25:35.012Z,50.60
2019-02-03T00:28:08.566Z,45.73
2019-02-03T00:30:40.369Z,44.23
2019-02-03T00:33:11.144Z,44.40
2019-02-03T00:35:42.101Z,50.20
2019-02-03T00:38:21.287Z,46.50
2019-02-03T00:40:45.018Z,57.13
2019-02-03T00:43:15.658Z,48.33
2019-02-03T00:45:46.635Z,53.80
2019-02-03T00:48:17.599Z,51.57
2019-02-03T00:50:48.062Z,45.53
2019-02-03T00:53:18.485Z,41.87
2019-02-03T00:55:50.216Z,46.67
2019-02-03T00:58:21.171Z,44.60
2019-02-03T01:00:55.449Z,48.77
2019-02-03T01:03:28.787Z,51.10
2019-02-03T01:05:59.447Z,46.47
2019-02-03T01:08:30.184Z,50.80
2019-02-03T01:11:00.935Z,44.77
2019-02-03T01:13:32.574Z,49.33
2019-02-03T01:16:04.321Z,49.67
2019-02-03T01:18:35.849Z,52.27
2019-02-03T01:21:06.287Z,51.60
2019-02-03T01:23:37.215Z,48.43
2019-02-03T01:26:07.553Z,50.00
2019-02-03T01:28:38.531Z,43.60
2019-02-03T01:31:10.209Z,50.37
2019-02-03T01:33:41.428Z,48.73
2019-02-03T01:36:11.972Z,52.10
2019-02-03T01:38:43.244Z,49.13
2019-02-03T01:41:14.333Z,46.87
2019-02-03T01:43:45.735Z,47.27
2019-02-03T01:46:16.686Z,49.37
2019-02-03T01:48:47.694Z,43.33
2019-02-03T01:51:18.896Z,50.27
2019-02-03T01:53:50.161Z,46.23
2019-02-03T01:56:21.806Z,50.87
2019-02-03T01:58:52.427Z,52.83
2019-02-03T02:01:23.005Z,45.60
2019-02-03T02:03:55.141Z,51.13
2019-02-03T02:06:26.703Z,47.83
2019-02-03T02:08:57.563Z,51.50
2019-02-03T02:11:29.976Z,45.90
2019-02-03T02:14:00.486Z,49.03
2019-02-03T02:16:31.164Z,41.00
2019-02-03T02:19:01.865Z,48.10
2019-02-03T02:21:33.751Z,49.10
2019-02-03T02:24:04.067Z,44.37
2019-02-03T02:26:34.694Z,54.43
2019-02-03T02:29:05.513Z,48.23
2019-02-03T02:31:37.092Z,45.73
2019-02-03T02:34:08.179Z,53.23
2019-02-03T02:36:39.836Z,46.90
2019-02-03T02:39:10.211Z,42.57
2019-02-03T02:41:42.077Z,50.53
2019-02-03T02:44:12.834Z,44.83
2019-02-03T02:46:43.881Z,49.83
2019-02-03T02:49:14.443Z,47.57
2019-02-03T02:51:44.779Z,60.33
2019-02-03T02:54:15.423Z,49.63
2019-02-03T02:56:45.756Z,46.93
2019-02-03T02:59:17.085Z,45.53
2019-02-03T03:01:47.990Z,48.20
2019-02-03T03:04:19.458Z,51.10
2019-02-03T03:06:50.965Z,47.63
2019-02-03T03:09:23.295Z,49.70
2019-02-03T03:11:54.110Z,47.03
2019-02-03T03:14:25.029Z,56.50
2019-02-03T03:16:58.367Z,44.40
2019-02-03T03:19:30.191Z,46.20
2019-02-03T03:22:01.510Z,50.07
2019-02-03T03:24:33.127Z,47.63
2019-02-03T03:27:04.821Z,43.77
2019-02-03T03:29:35.642Z,52.33
2019-02-03T03:32:06.880Z,44.40
2019-02-03T03:34:37.576Z,40.40
2019-02-03T03:37:08.221Z,43.63
2019-02-03T03:39:38.688Z,45.73
2019-02-03T03:42:09.326Z,47.17
2019-02-03T03:44:40.103Z,47.57
2019-02-03T03:47:12.120Z,54.77
2019-02-03T03:49:42.865Z,46.73
2019-02-03T03:52:15.262Z,45.60
2019-02-03T03:54:46.300Z,47.13
2019-02-03T03:57:16.872Z,47.97
2019-02-03T03:59:47.874Z,40.03
2019-02-03T04:02:19.016Z,39.23
2019-02-03T04:04:49.691Z,42.77
2019-02-03T04:07:20.207Z,49.20
2019-02-03T04:09:50.911Z,43.60
2019-02-03T04:12:23.006Z,50.57
2019-02-03T04:14:53.651Z,46.87
2019-02-03T04:17:24.292Z,53.60
2019-02-03T04:19:54.834Z,45.50
2019-02-03T04:22:25.507Z,52.20
2019-02-03T04:24:56.137Z,55.17
2019-02-03T04:27:26.883Z,51.63
2019-02-03T04:29:57.257Z,50.63
2019-02-03T04:32:28.042Z,58.40
2019-02-03T04:34:59.526Z,56.17
2019-02-03T04:37:30.426Z,58.47
2019-02-03T04:40:01.683Z,60.17
2019-02-03T04:42:34.354Z,54.17
2019-02-03T04:45:05.830Z,63.13
2019-02-03T04:47:36.647Z,59.60
2019-02-03T04:50:10.358Z,66.90
2019-02-03T04:52:40.857Z,63.53
2019-02-03T04:55:12.944Z,60.57
2019-02-03T04:57:44.393Z,63.23
2019-02-03T05:00:18.124Z,63.63
2019-02-03T05:02:48.780Z,52.23
2019-02-03T05:05:20.135Z,63.33
2019-02-03T05:07:51.067Z,50.90
2019-02-03T05:10:21.901Z,55.73
2019-02-03T05:12:53.095Z,56.40
2019-02-03T05:15:25.659Z,55.07
2019-02-03T05:17:56.571Z,54.87
2019-02-03T05:20:28.545Z,55.13
2019-02-03T05:22:59.578Z,45.03
2019-02-03T05:25:30.364Z,45.77
2019-02-03T05:28:01.404Z,41.80
2019-02-03T05:30:34.616Z,58.70
2019-02-03T05:33:06.374Z,46.27
2019-02-03T05:35:36.315Z,49.27
2019-02-03T05:38:06.487Z,47.47
2019-02-03T05:40:36.608Z,43.97
2019-02-03T05:43:06.916Z,46.13
2019-02-03T05:45:37.450Z,52.50
2019-02-03T05:48:07.748Z,44.23
2019-02-03T05:50:37.890Z,55.37
2019-02-03T05:53:08.070Z,45.50
2019-02-03T05:55:38.212Z,53.10
2019-02-03T05:58:08.693Z,51.43
2019-02-03T06:00:40.845Z,57.70
2019-02-03T06:03:11.171Z,41.07
2019-02-03T06:05:41.768Z,47.83
2019-02-03T06:08:11.730Z,44.73
2019-02-03T06:10:42.267Z,41.33
2019-02-03T06:13:12.467Z,41.20
2019-02-03T06:15:42.891Z,44.53
2019-02-03T06:18:13.163Z,46.70
2019-02-03T06:20:43.304Z,38.73
2019-02-03T06:23:14.505Z,43.53
2019-02-03T06:25:44.619Z,44.70
2019-02-03T06:28:14.662Z,43.83
2019-02-03T06:31:14.302Z,39.57
2019-02-03T06:33:52.620Z,48.07
2019-02-03T06:36:23.379Z,40.40
2019-02-03T06:38:54.597Z,52.43
2019-02-03T06:41:26.641Z,43.23
2019-02-03T06:43:57.474Z,40.23
2019-02-03T06:46:56.290Z,39.97
2019-02-03T06:49:30.301Z,34.10
2019-02-03T06:52:00.310Z,37.00
2019-02-03T06:54:30.797Z,43.03
2019-02-03T06:57:01.310Z,45.67
2019-02-03T06:59:31.476Z,32.47
2019-02-03T07:02:02.287Z,41.50
2019-02-03T07:04:32.297Z,41.90
2019-02-03T07:07:02.411Z,39.03
2019-02-03T07:09:32.764Z,37.70
2019-02-03T07:12:02.932Z,31.47
2019-02-03T07:14:32.877Z,32.53
2019-02-03T07:17:03.009Z,32.87
2019-02-03T07:19:33.110Z,37.40
2019-02-03T07:22:03.246Z,31.93
2019-02-03T07:24:33.561Z,33.03
2019-02-03T07:27:03.906Z,42.03
2019-02-03T07:29:34.041Z,37.00
2019-02-03T07:32:04.268Z,39.33
2019-02-03T07:34:34.544Z,32.93
2019-02-03T07:37:04.866Z,40.87
2019-02-03T07:39:34.920Z,35.40
2019-02-03T07:42:05.447Z,33.73
2019-02-03T07:44:36.586Z,35.97
2019-02-03T07:47:06.820Z,33.70
2019-02-03T07:49:37.016Z,32.23
2019-02-03T07:52:07.420Z,44.40
2019-02-03T07:54:37.680Z,39.30
2019-02-03T07:57:08.849Z,35.20
2019-02-03T07:59:40.441Z,36.10
2019-02-03T08:02:10.466Z,38.07
2019-02-03T08:04:40.693Z,30.43
2019-02-03T08:07:11.240Z,34.93
2019-02-03T08:09:41.334Z,35.47
2019-02-03T08:12:11.727Z,37.50
2019-02-03T08:14:42.499Z,32.20
2019-02-03T08:17:13.451Z,40.03
2019-02-03T08:19:43.474Z,35.80
2019-02-03T08:22:14.899Z,35.10
2019-02-03T08:24:46.599Z,36.97
2019-02-03T08:27:16.712Z,29.07
2019-02-03T08:29:46.912Z,28.67
2019-02-03T08:32:17.501Z,36.00
2019-02-03T08:34:49.368Z,31.60
2019-02-03T08:37:19.652Z,38.63
2019-02-03T08:39:49.955Z,37.77
2019-02-03T08:42:20.310Z,41.83
2019-02-03T08:44:50.917Z,33.07
2019-02-03T08:47:21.832Z,46.03
2019-02-03T08:49:52.041Z,40.73
2019-02-03T08:52:23.395Z,44.47
2019-02-03T08:54:58.318Z,48.33
2019-02-03T08:57:26.531Z,39.20
2019-02-03T08:59:58.061Z,35.93
2019-02-03T09:02:28.706Z,46.17
2019-02-03T09:04:59.464Z,50.83
2019-02-03T09:07:29.986Z,47.50
2019-02-03T09:10:00.429Z,40.37
2019-02-03T09:12:31.290Z,45.47
2019-02-03T09:15:01.838Z,49.00
2019-02-03T09:17:32.571Z,45.00
2019-02-03T09:20:02.801Z,47.77
2019-02-03T09:22:33.215Z,56.73
2019-02-03T09:25:03.871Z,57.47
2019-02-03T09:27:34.705Z,52.83
2019-02-03T09:30:08.507Z,54.27
2019-02-03T09:32:39.471Z,47.73
2019-02-03T09:35:11.427Z,50.80
2019-02-03T09:37:42.621Z,50.40
2019-02-03T09:40:17.293Z,45.33
2019-02-03T09:42:47.862Z,49.23
2019-02-03T09:45:20.150Z,40.13
2019-02-03T09:47:51.250Z,36.77
2019-02-03T09:50:23.780Z,36.73
2019-02-03T09:52:55.576Z,47.90
2019-02-03T09:55:26.929Z,44.53
2019-02-03T09:57:59.912Z,36.90
2019-02-03T10:00:32.334Z,38.23
2019-02-03T10:03:04.137Z,39.67
2019-02-03T10:05:37.081Z,34.30
2019-02-03T10:08:07.849Z,32.03
2019-02-03T10:10:40.300Z,34.40
2019-02-03T10:13:10.832Z,30.50
2019-02-03T10:15:41.826Z,33.30
2019-02-03T10:18:12.976Z,31.00
2019-02-03T10:20:43.406Z,29.43
2019-02-03T10:23:36.295Z,28.87
2019-02-03T10:26:15.469Z,28.77
2019-02-03T10:28:52.837Z,26.90
2019-02-03T10:31:32.499Z,27.30
2019-02-03T10:34:03.424Z,26.60
2019-02-03T10:36:49.638Z,27.20
2019-02-03T10:39:33.051Z,25.13
2019-02-03T10:42:04.048Z,26.57
2019-02-03T10:44:36.380Z,26.57
2019-02-03T10:47:16.542Z,25.10
2019-02-03T10:50:03.627Z,23.57
2019-02-03T10:52:43.129Z,26.73
2019-02-03T10:55:15.171Z,22.53
2019-02-03T10:57:46.318Z,22.00
2019-02-03T11:00:41.338Z,23.37
2019-02-03T11:03:21.251Z,20.43
2019-02-03T11:05:59.103Z,22.87
2019-02-03T11:08:28.984Z,19.70
2019-02-03T11:11:00.620Z,21.10
2019-02-03T11:13:31.204Z,21.07
2019-02-03T11:16:07.142Z,20.87
2019-02-03T11:21:30.970Z,19.10
2019-02-03T11:24:12.195Z,21.37
2019-02-03T11:26:45.851Z,20.23
2019-02-03T11:29:37.758Z,20.23
2019-02-03T11:32:10.422Z,20.97
2019-02-03T11:34:42.510Z,19.80
2019-02-03T11:37:21.390Z,20.70
2019-02-03T11:39:53.461Z,17.70
2019-02-03T11:42:32.410Z,20.00
2019-02-03T11:45:04.974Z,20.17
2019-02-03T11:47:36.472Z,20.80
2019-02-03T11:50:09.947Z,20.40
2019-02-03T11:52:41.939Z,21.33
2019-02-03T11:56:00.585Z,20.73
2019-02-03T11:58:39.944Z,19.40
2019-02-03T12:01:20.789Z,20.10
2019-02-03T12:03:56.220Z,20.37
2019-02-03T12:06:29.278Z,20.20
2019-02-03T12:09:03.950Z,19.70
2019-02-03T12:11:38.904Z,24.73
2019-02-03T12:14:24.886Z,26.97
2019-02-03T12:17:51.061Z,31.03
2019-02-03T12:20:23.221Z,30.73
2019-02-03T12:23:09.742Z,27.93
2019-02-03T12:25:43.100Z,30.30
2019-02-03T12:28:15.223Z,36.40
2019-02-03T12:31:06.197Z,37.80
2019-02-03T12:33:47.489Z,33.57
2019-02-03T12:36:19.790Z,36.03
2019-02-03T12:38:52.218Z,33.50
2019-02-03T12:41:24.158Z,35.00
2019-02-03T12:44:03.260Z,35.70
2019-02-03T12:46:35.537Z,35.80
2019-02-03T12:49:07.699Z,34.60
2019-02-03T12:51:41.373Z,35.23
2019-02-03T12:54:31.418Z,34.17
2019-02-03T12:57:03.962Z,36.87
2019-02-03T12:59:42.514Z,32.03
2019-02-03T13:02:14.566Z,33.30
2019-02-03T13:05:47.238Z,31.17
2019-02-03T13:08:28.105Z,28.90
2019-02-03T13:11:00.837Z,29.63
2019-02-03T13:14:03.220Z,30.90
2019-02-03T13:16:37.150Z,30.10
2019-02-03T13:19:10.164Z,31.30
2019-02-03T13:21:42.741Z,27.90
2019-02-03T13:24:14.779Z,28.67
2019-02-03T13:26:47.723Z,26.40
2019-02-03T13:29:23.191Z,26.87
2019-02-03T13:31:55.259Z,24.97
2019-02-03T13:34:28.079Z,24.93
2019-02-03T13:37:08.189Z,24.33
2019-02-03T13:39:50.212Z,23.90
2019-02-03T13:42:22.905Z,25.10
2019-02-03T13:45:20.273Z,25.27
2019-02-03T13:47:42.591Z,25.73
2019-02-03T13:50:19.354Z,25.50
2019-02-03T13:52:52.030Z,25.07
2019-02-03T13:58:23.060Z,23.90
2019-02-03T14:00:59.179Z,23.33
2019-02-03T14:03:45.357Z,24.23
2019-02-03T14:06:18.085Z,22.67
2019-02-03T14:09:06.689Z,23.17
2019-02-03T14:11:58.060Z,21.20
2019-02-03T14:14:30.759Z,24.13
2019-02-03T14:17:02.560Z,23.10
2019-02-03T14:19:35.838Z,26.97
2019-02-03T14:22:27.071Z,29.67
2019-02-03T14:24:59.404Z,28.87
2019-02-03T14:27:48.441Z,31.73
2019-02-03T14:30:44.905Z,34.43
2019-02-03T14:33:30.819Z,33.53
2019-02-03T14:36:02.814Z,35.40
2019-02-03T14:38:37.027Z,36.00
2019-02-03T14:41:08.781Z,35.87
2019-02-03T14:44:34.641Z,37.20
2019-02-03T14:47:15.421Z,36.93
2019-02-03T14:49:47.419Z,35.67
2019-02-03T14:52:32.477Z,36.40
2019-02-03T14:55:13.571Z,37.80
2019-02-03T14:58:43.051Z,37.93
2019-02-03T15:01:02.434Z,35.60
2019-02-03T15:03:34.837Z,33.93
2019-02-03T15:06:07.348Z,34.53
2019-02-03T15:08:39.669Z,35.63
2019-02-03T15:11:12.676Z,34.73
2019-02-03T15:13:46.883Z,31.50
2019-02-03T15:16:20.344Z,33.47
2019-02-03T15:19:09.303Z,33.10
2019-02-03T15:21:56.931Z,36.30
2019-02-03T15:24:34.902Z,40.77
2019-02-03T15:27:38.131Z,37.90
2019-02-03T15:30:36.714Z,41.00
2019-02-03T15:33:18.374Z,41.63
2019-02-03T15:35:52.678Z,42.03
2019-02-03T15:38:29.596Z,42.30
2019-02-03T15:41:06.778Z,41.77
2019-02-03T15:43:42.188Z,41.80
2019-02-03T15:46:32.047Z,41.47
2019-02-03T15:49:10.482Z,41.67
2019-02-03T15:51:51.285Z,38.30
2019-02-03T15:54:29.037Z,36.93
2019-02-03T15:57:05.527Z,37.80
2019-02-03T15:59:44.512Z,35.13
2019-02-03T16:02:24.140Z,34.67
2019-02-03T16:05:03.549Z,33.77
2019-02-03T16:07:40.211Z,34.30
2019-02-03T16:10:17.498Z,31.63
2019-02-03T16:12:54.548Z,32.30
2019-02-03T16:15:28.478Z,31.90
2019-02-03T16:18:03.318Z,33.73
2019-02-03T16:20:41.664Z,31.23
2019-02-03T16:23:19.184Z,29.07
2019-02-03T16:25:58.109Z,30.47
2019-02-03T16:28:32.371Z,29.60
2019-02-03T16:31:05.618Z,28.27
2019-02-03T16:33:41.968Z,28.20
2019-02-03T16:36:16.107Z,27.30
2019-02-03T16:38:49.772Z,27.67
2019-02-03T16:41:28.642Z,27.90
2019-02-03T16:44:06.352Z,28.30
2019-02-03T16:46:41.979Z,27.03
2019-02-03T16:49:17.128Z,25.60
2019-02-03T16:51:53.916Z,27.00
2019-02-03T16:54:30.604Z,27.70
2019-02-03T16:57:06.581Z,26.00
2019-02-03T16:59:45.072Z,26.83
2019-02-03T17:02:19.006Z,25.83
2019-02-03T17:04:51.300Z,25.70
2019-02-03T17:07:23.346Z,25.87
2019-02-03T17:09:57.271Z,24.83
2019-02-03T17:12:28.988Z,24.27
2019-02-03T17:15:00.921Z,22.67
2019-02-03T17:17:33.565Z,25.23
2019-02-03T17:20:07.467Z,26.90
2019-02-03T17:22:39.403Z,27.17
2019-02-03T17:25:12.547Z,24.70
2019-02-03T17:27:45.242Z,27.20
2019-02-03T17:30:17.074Z,28.10
2019-02-03T17:32:48.991Z,30.00
2019-02-03T17:35:21.489Z,31.03
2019-02-03T17:37:53.502Z,30.87
2019-02-03T17:40:25.298Z,31.23
2019-02-03T17:42:56.097Z,29.27
2019-02-03T17:45:28.842Z,31.10
2019-02-03T17:48:01.103Z,29.13
2019-02-03T17:50:33.099Z,27.83
2019-02-03T17:53:05.620Z,28.83
2019-02-03T17:55:37.052Z,28.37
2019-02-03T17:58:09.288Z,29.40
2019-02-03T18:00:51.508Z,29.63
2019-02-03T18:03:23.019Z,32.50
2019-02-03T18:05:54.626Z,33.10
2019-02-03T18:08:26.303Z,37.03
2019-02-03T18:10:58.258Z,35.90
2019-02-03T18:13:29.985Z,35.37
2019-02-03T18:16:04.171Z,37.73
2019-02-03T18:18:36.995Z,36.43
2019-02-03T18:21:09.091Z,38.00
2019-02-03T18:23:45.233Z,38.93
2019-02-03T18:26:17.102Z,37.83
2019-02-03T18:28:49.260Z,36.70
2019-02-03T18:31:21.899Z,36.60
2019-02-03T18:33:55.180Z,36.97
2019-02-03T18:36:26.639Z,39.00
2019-02-03T18:38:58.221Z,38.30
2019-02-03T18:41:31.480Z,36.27
2019-02-03T18:44:03.587Z,35.57
2019-02-03T18:46:36.528Z,36.73
2019-02-03T18:49:08.244Z,34.33
2019-02-03T18:51:40.511Z,33.57
2019-02-03T18:54:12.015Z,34.13
2019-02-03T18:56:44.506Z,37.13
2019-02-03T18:59:16.622Z,33.90
2019-02-03T19:01:47.899Z,32.83
2019-02-03T19:04:20.288Z,32.13
2019-02-03T19:06:52.219Z,32.03
2019-02-03T19:09:30.460Z,35.60
2019-02-03T19:12:02.830Z,27.23
2019-02-03T19:14:46.522Z,31.60
2019-02-03T19:17:08.299Z,28.00
2019-02-03T19:19:42.580Z,29.27
2019-02-03T19:22:14.930Z,28.30
2019-02-03T19:24:46.940Z,28.00
2019-02-03T19:27:18.427Z,27.90
2019-02-03T19:29:50.229Z,27.10
2019-02-03T19:32:22.264Z,26.23
2019-02-03T19:34:54.542Z,24.53
2019-02-03T19:37:27.031Z,25.50
2019-02-03T19:39:59.283Z,24.83
2019-02-03T19:42:32.501Z,23.60
2019-02-03T19:45:05.341Z,25.13
2019-02-03T19:47:37.439Z,24.53
2019-02-03T19:50:12.062Z,25.43
2019-02-03T19:52:44.820Z,24.40
2019-02-03T19:55:17.343Z,23.23
2019-02-03T19:57:49.911Z,23.00
2019-02-03T20:00:35.250Z,23.20
2019-02-03T20:03:09.325Z,22.10
2019-02-03T20:05:42.963Z,23.30
2019-02-03T20:08:19.660Z,21.80
2019-02-03T20:11:11.098Z,20.70
2019-02-03T20:13:44.213Z,20.23
2019-02-03T20:16:16.058Z,20.87
2019-02-03T20:18:49.145Z,20.10
2019-02-03T20:21:21.521Z,20.03
2019-02-03T20:23:53.458Z,20.60
2019-02-03T20:26:26.437Z,20.07
2019-02-03T20:28:58.582Z,18.03
2019-02-03T20:31:31.615Z,18.63
2019-02-03T20:34:03.530Z,19.13
2019-02-03T20:36:36.010Z,16.80
2019-02-03T20:39:09.951Z,17.40
2019-02-03T20:41:43.939Z,18.40
2019-02-03T20:44:17.413Z,17.67
2019-02-03T20:46:49.308Z,20.30
2019-02-03T20:49:21.621Z,17.70
2019-02-03T20:51:54.425Z,18.63
2019-02-03T20:54:27.339Z,17.30
2019-02-03T20:57:00.612Z,18.50
2019-02-03T20:59:33.741Z,16.43
2019-02-03T21:02:06.607Z,17.63
2019-02-03T21:04:40.041Z,18.53
2019-02-03T21:07:13.559Z,15.50
2019-02-03T21:09:46.704Z,16.53
2019-02-03T21:12:19.805Z,17.00
2019-02-03T21:14:51.696Z,16.73
2019-02-03T21:17:24.243Z,15.27
2019-02-03T21:19:55.941Z,14.97
2019-02-03T21:22:28.423Z,14.17
2019-02-03T21:25:01.725Z,14.90
2019-02-03T21:27:33.830Z,15.73
2019-02-03T21:30:08.749Z,15.57
2019-02-03T21:32:40.870Z,15.53
2019-02-03T21:35:13.931Z,14.70
2019-02-03T21:37:46.249Z,14.00
2019-02-03T21:40:21.349Z,14.30
2019-02-03T21:42:53.289Z,13.50
2019-02-03T21:45:25.919Z,13.10
2019-02-03T21:47:58.161Z,14.23
2019-02-03T21:50:30.498Z,13.50
2019-02-03T21:53:02.037Z,14.47
2019-02-03T21:55:33.170Z,19.67
2019-02-03T21:58:04.670Z,26.77
2019-02-03T22:00:36.421Z,25.50
2019-02-03T22:03:08.725Z,26.53
2019-02-03T22:05:40.388Z,25.57
2019-02-03T22:08:12.182Z,26.00
2019-02-03T22:10:43.524Z,26.37
2019-02-03T22:13:15.740Z,27.43
2019-02-03T22:15:55.587Z,30.17
2019-02-03T22:18:19.335Z,31.73
2019-02-03T22:20:50.094Z,32.53
2019-02-03T22:23:21.576Z,34.07
2019-02-03T22:25:54.403Z,32.43
2019-02-03T22:28:25.327Z,33.70
2019-02-03T22:30:56.945Z,32.47
2019-02-03T22:33:29.503Z,31.67
2019-02-03T22:36:01.097Z,30.77
2019-02-03T22:38:32.037Z,29.83
2019-02-03T22:41:03.539Z,28.77
2019-02-03T22:43:34.540Z,26.77
2019-02-03T22:46:07.413Z,26.57
2019-02-03T22:48:39.306Z,26.73
2019-02-03T22:51:10.507Z,24.07
2019-02-03T22:53:41.831Z,21.87
2019-02-03T22:56:13.751Z,21.73
2019-02-03T22:58:45.536Z,21.07
2019-02-03T23:01:21.427Z,21.80
2019-02-03T23:04:01.705Z,20.70
2019-02-03T23:06:33.334Z,20.83
2019-02-03T23:09:17.860Z,21.63
2019-02-03T23:11:48.742Z,21.20
2019-02-03T23:14:21.140Z,18.40
2019-02-03T23:16:51.946Z,17.73
2019-02-03T23:19:23.348Z,17.10
2019-02-03T23:21:55.070Z,16.27
2019-02-03T23:24:26.346Z,16.37
2019-02-03T23:26:57.163Z,15.73
2019-02-03T23:29:28.333Z,16.07
2019-02-03T23:31:59.878Z,15.43
2019-02-03T23:34:30.789Z,15.27
2019-02-03T23:37:02.762Z,15.07
2019-02-03T23:39:33.844Z,15.10
2019-02-03T23:42:05.605Z,14.37
2019-02-03T23:44:36.992Z,14.53
2019-02-03T23:47:07.769Z,14.53
2019-02-03T23:49:38.672Z,13.10
2019-02-03T23:52:09.491Z,14.37
2019-02-03T23:54:40.984Z,13.90
2019-02-03T23:57:12.060Z,14.07
2019-02-03T23:59:43.547Z,14.53
